Time;durP1;ratioP1;P1;durP2;ratioP2;P2;SDS_P1;SDS_P2;PMS_P1;PMS_P2;Temp;Humidity;BMP_temperature;BMP_pressure;BME280_temperature;BME280_humidity;BME280_pressure;Samples;Min_cycle;Max_cycle;Signal;HPM_P1;HPM_P2
2022/06/05 00:01:53;;;;;;;12.73;10.18;;;27.40;68.60;;;;;;4973431;28;20432;-86
2022/06/05 00:04:38;;;;;;;14.27;11.40;;;27.50;68.60;;;;;;4959022;28;20050;-86
2022/06/05 00:07:30;;;;;;;13.50;11.02;;;27.50;68.50;;;;;;4958902;28;20026;-83
2022/06/05 00:10:04;;;;;;;13.55;10.27;;;27.60;68.20;;;;;;4958991;28;20102;-84
2022/06/05 00:12:59;;;;;;;11.48;8.95;;;27.50;67.60;;;;;;4957658;28;20039;-85
2022/06/05 00:15:25;;;;;;;11.00;8.80;;;27.50;67.60;;;;;;4956426;28;20038;-82
2022/06/05 00:17:51;;;;;;;17.58;10.85;;;27.50;67.80;;;;;;4958663;28;20377;-84
2022/06/05 00:20:16;;;;;;;11.63;9.35;;;27.50;67.80;;;;;;4958782;28;20018;-83
2022/06/05 00:22:42;;;;;;;11.88;10.40;;;27.60;67.30;;;;;;4958247;28;20030;-84
2022/06/05 00:25:10;;;;;;;13.52;9.85;;;27.50;67.20;;;;;;4959165;28;20037;-83
2022/06/05 00:27:43;;;;;;;15.88;13.00;;;27.50;67.40;;;;;;4958435;28;20022;-83
2022/06/05 00:30:32;;;;;;;13.63;10.63;;;27.50;67.40;;;;;;4975658;28;20081;-83
2022/06/05 00:33:15;;;;;;;17.65;11.85;;;27.50;67.50;;;;;;4958293;28;20386;-83
2022/06/05 00:35:59;;;;;;;12.18;9.02;;;27.40;68.40;;;;;;4958660;28;20223;-83
2022/06/05 00:38:25;;;;;;;14.55;12.05;;;27.40;68.30;;;;;;4958242;28;20023;-84
2022/06/05 00:40:50;;;;;;;18.63;13.40;;;27.20;68.80;;;;;;4957563;28;20029;-84
2022/06/05 00:43:20;;;;;;;14.18;10.82;;;27.30;69.00;;;;;;4959447;28;20034;-85
2022/06/05 00:45:46;;;;;;;13.83;10.90;;;27.30;69.10;;;;;;4958431;28;20076;-82
2022/06/05 00:48:13;;;;;;;13.43;11.40;;;27.30;68.90;;;;;;4974638;28;20431;-82
2022/06/05 00:50:42;;;;;;;15.40;12.05;;;27.40;68.50;;;;;;4957484;28;20050;-82
2022/06/05 00:53:09;;;;;;;16.30;12.05;;;27.40;68.50;;;;;;4957942;28;20054;-82
2022/06/05 00:55:39;;;;;;;18.83;13.23;;;27.40;68.60;;;;;;4958184;28;20481;-83
2022/06/05 00:58:05;;;;;;;12.73;11.35;;;27.40;68.40;;;;;;4957370;28;20374;-81
2022/06/05 01:00:35;;;;;;;15.70;10.48;;;27.40;68.60;;;;;;4958177;28;20030;-82
2022/06/05 01:03:04;;;;;;;15.00;10.57;;;27.40;68.30;;;;;;4957752;28;20042;-83
2022/06/05 01:05:30;;;;;;;13.35;11.15;;;27.40;68.70;;;;;;4958201;28;20073;-81
2022/06/05 01:07:57;;;;;;;15.60;9.80;;;27.40;68.60;;;;;;4961242;28;20378;-81
2022/06/05 01:10:26;;;;;;;16.30;11.48;;;27.30;68.70;;;;;;4957569;28;20378;-81
2022/06/05 01:13:04;;;;;;;17.17;12.88;;;27.20;69.10;;;;;;4954334;28;20039;-81
2022/06/05 01:15:42;;;;;;;16.48;11.88;;;27.30;69.10;;;;;;4953846;28;20067;-80
2022/06/05 01:18:37;;;;;;;17.70;12.70;;;27.20;69.40;;;;;;4936544;29;20027;-81
2022/06/05 01:21:27;;;;;;;14.63;12.07;;;27.10;69.30;;;;;;4933457;29;20043;-82
2022/06/05 01:24:12;;;;;;;15.65;11.20;;;27.20;69.30;;;;;;4955952;28;20382;-82
2022/06/05 01:27:06;;;;;;;12.45;10.82;;;27.30;69.10;;;;;;4954429;28;20023;-80
2022/06/05 01:29:37;;;;;;;16.45;11.88;;;27.20;69.10;;;;;;4953401;28;20118;-80
2022/06/05 01:32:07;;;;;;;16.20;12.25;;;27.30;69.00;;;;;;4955436;28;20016;-82
2022/06/05 01:34:52;;;;;;;13.48;11.55;;;27.30;69.10;;;;;;4954492;29;20039;-81
2022/06/05 01:37:27;;;;;;;16.13;12.30;;;27.30;68.80;;;;;;4954354;28;20034;-80
2022/06/05 01:40:04;;;;;;;14.95;10.32;;;27.40;68.80;;;;;;4953918;29;20142;-79
2022/06/05 01:42:44;;;;;;;12.85;10.60;;;27.40;68.50;;;;;;4953336;29;20035;-79
2022/06/05 01:45:20;;;;;;;15.43;11.32;;;27.40;68.40;;;;;;4954377;29;20118;-80
2022/06/05 01:47:52;;;;;;;14.15;10.60;;;27.40;68.20;;;;;;4954409;29;20363;-79
2022/06/05 01:50:20;;;;;;;13.35;10.27;;;27.40;68.10;;;;;;4953815;29;20049;-79
2022/06/05 01:53:03;;;;;;;12.80;11.35;;;27.30;68.40;;;;;;4952921;29;20023;-82
2022/06/05 01:55:46;;;;;;;15.52;8.90;;;27.10;68.80;;;;;;4953935;29;20034;-79
2022/06/05 01:58:15;;;;;;;14.32;10.35;;;26.80;69.70;;;;;;4955258;28;20023;-80
2022/06/05 02:00:42;;;;;;;12.55;10.10;;;26.70;70.00;;;;;;4954166;28;20026;-80
2022/06/05 02:03:17;;;;;;;12.32;9.63;;;26.70;70.00;;;;;;4954932;28;20410;-81
2022/06/05 02:05:53;;;;;;;13.23;9.90;;;26.90;68.90;;;;;;4953893;28;20427;-79
2022/06/05 02:08:23;;;;;;;11.18;8.57;;;26.90;68.30;;;;;;4956805;28;20025;-79
2022/06/05 02:11:00;;;;;;;10.97;8.03;;;27.00;68.40;;;;;;4957642;29;20027;-78
2022/06/05 02:13:26;;;;;;;10.50;8.70;;;26.80;69.00;;;;;;4968303;28;20268;-81
2022/06/05 02:15:53;;;;;;;11.60;9.35;;;26.60;69.50;;;;;;4960647;28;20366;-78
2022/06/05 02:18:19;;;;;;;10.93;8.98;;;26.70;69.10;;;;;;4977045;28;20390;-81
2022/06/05 02:20:45;;;;;;;12.65;9.57;;;26.80;68.20;;;;;;4977835;28;20381;-77
2022/06/05 02:23:15;;;;;;;14.15;11.20;;;26.70;67.80;;;;;;4976810;28;20036;-79
2022/06/05 02:25:41;;;;;;;16.38;9.68;;;26.70;67.80;;;;;;4976256;28;20026;-80
2022/06/05 02:28:12;;;;;;;14.77;9.65;;;26.80;67.80;;;;;;4959991;28;20030;-78
2022/06/05 02:31:08;;;;;;;12.07;9.32;;;26.90;67.60;;;;;;4960554;28;20117;-80
2022/06/05 02:33:51;;;;;;;12.23;9.88;;;26.80;67.30;;;;;;4977099;28;20027;-79
2022/06/05 02:36:35;;;;;;;12.95;8.43;;;26.90;66.80;;;;;;4976114;28;20093;-78
2022/06/05 02:39:38;;;;;;;10.32;8.70;;;26.60;67.30;;;;;;4959522;28;20114;-79
2022/06/05 02:42:27;;;;;;;13.77;10.88;;;26.40;68.70;;;;;;4976844;28;20365;-79
2022/06/05 02:45:07;;;;;;;13.20;10.18;;;26.20;68.90;;;;;;4959624;28;20023;-78
2022/06/05 02:47:59;;;;;;;10.43;9.18;;;26.10;69.70;;;;;;4957934;28;20019;-79
2022/06/05 02:50:32;;;;;;;13.55;10.23;;;26.30;69.00;;;;;;4976812;28;20019;-80
2022/06/05 02:53:07;;;;;;;14.68;10.18;;;26.40;68.10;;;;;;4959415;28;20038;-78
2022/06/05 02:55:33;;;;;;;10.43;8.52;;;26.50;67.40;;;;;;4958893;28;20033;-78
2022/06/05 02:57:59;;;;;;;10.73;7.90;;;26.20;68.60;;;;;;4959485;28;20054;-79
2022/06/05 03:00:28;;;;;;;11.60;8.80;;;26.10;69.30;;;;;;4959200;28;20080;-79
2022/06/05 03:05:39;;;;;;;14.07;10.25;;;26.20;69.40;;;;;;4976156;28;20164;-78
2022/06/05 03:08:07;;;;;;;16.15;12.02;;;25.70;71.60;;;;;;4977005;28;20026;-78
2022/06/05 03:10:33;;;;;;;12.98;10.68;;;25.70;70.80;;;;;;4976623;28;20073;-79
2022/06/05 03:13:01;;;;;;;12.52;9.13;;;26.00;70.60;;;;;;4976512;28;20113;-81
2022/06/05 03:15:27;;;;;;;11.07;8.80;;;25.80;72.40;;;;;;4975693;28;20023;-79
2022/06/05 03:17:53;;;;;;;12.07;9.05;;;25.20;74.20;;;;;;4959348;28;20029;-79
2022/06/05 03:20:19;;;;;;;12.43;9.80;;;24.80;75.60;;;;;;4958573;28;20019;-79
2022/06/05 03:22:45;;;;;;;11.02;9.23;;;24.50;77.50;;;;;;4975191;28;20034;-78
2022/06/05 03:25:25;;;;;;;15.43;11.40;;;24.80;76.20;;;;;;4975166;28;20474;-77
2022/06/05 03:27:50;;;;;;;11.63;9.80;;;25.40;74.70;;;;;;4976198;28;20077;-78
2022/06/05 03:30:17;;;;;;;12.90;10.85;;;25.90;73.30;;;;;;4976062;28;20026;-80
2022/06/05 03:32:43;;;;;;;17.60;12.70;;;26.30;72.60;;;;;;4959121;28;20019;-79
2022/06/05 03:35:10;;;;;;;15.82;11.27;;;26.70;71.80;;;;;;4957722;28;20027;-78
2022/06/05 03:37:36;;;;;;;14.40;12.32;;;26.90;71.00;;;;;;4958906;28;20026;-78
2022/06/05 03:40:06;;;;;;;17.42;13.05;;;27.20;70.60;;;;;;4975860;28;20101;-78
2022/06/05 03:42:32;;;;;;;17.63;13.25;;;27.40;69.90;;;;;;4974932;28;20128;-80
2022/06/05 03:44:57;;;;;;;17.65;13.23;;;27.50;69.70;;;;;;4957682;28;20098;-78
2022/06/05 03:47:23;;;;;;;16.50;12.82;;;27.50;69.60;;;;;;4957766;28;20034;-81
2022/06/05 03:49:49;;;;;;;15.45;12.88;;;27.50;70.00;;;;;;4958947;28;20022;-78
2022/06/05 03:52:14;;;;;;;15.68;13.27;;;27.50;69.90;;;;;;4975385;28;20019;-78
2022/06/05 03:54:40;;;;;;;15.23;12.60;;;27.60;69.70;;;;;;4958094;28;20023;-80
2022/06/05 03:57:07;;;;;;;16.05;13.70;;;27.80;69.40;;;;;;4958609;28;20022;-80
2022/06/05 03:59:36;;;;;;;13.95;12.05;;;27.90;69.20;;;;;;4974925;28;20027;-78
2022/06/05 04:02:04;;;;;;;13.52;10.93;;;27.90;69.20;;;;;;4957694;28;20426;-78
2022/06/05 04:04:31;;;;;;;12.23;10.75;;;27.80;69.10;;;;;;4958041;28;20477;-78
2022/06/05 04:06:56;;;;;;;12.20;10.88;;;27.80;69.10;;;;;;4975316;28;20049;-81
2022/06/05 04:09:22;;;;;;;12.15;10.85;;;27.60;69.60;;;;;;4976011;28;20022;-80
2022/06/05 04:11:48;;;;;;;14.95;11.35;;;27.50;69.40;;;;;;4974691;28;20027;-78
2022/06/05 04:14:13;;;;;;;11.65;10.10;;;27.50;69.30;;;;;;4975748;28;20487;-79
2022/06/05 04:16:41;;;;;;;11.10;9.27;;;27.60;69.30;;;;;;4958890;28;20023;-89
2022/06/05 04:19:07;;;;;;;13.05;8.88;;;26.80;71.20;;;;;;4957967;28;20054;-89
2022/06/05 04:21:36;;;;;;;12.65;9.82;;;25.80;73.30;;;;;;4957487;28;20026;-77
2022/06/05 04:24:04;;;;;;;14.17;9.73;;;25.50;75.00;;;;;;4958727;28;20039;-84
2022/06/05 04:26:33;;;;;;;15.52;12.13;;;26.00;73.80;;;;;;4975773;28;20046;-80
2022/06/05 04:28:59;;;;;;;12.73;10.18;;;26.60;72.50;;;;;;4957937;28;20054;-79
2022/06/05 04:31:30;;;;;;;10.73;9.10;;;27.00;72.00;;;;;;4975473;28;20631;-78
2022/06/05 04:33:59;;;;;;;12.27;10.07;;;27.30;71.00;;;;;;4958358;28;20027;-78
2022/06/05 04:36:25;;;;;;;12.57;9.90;;;27.50;70.20;;;;;;4974896;28;20454;-79
2022/06/05 04:38:51;;;;;;;11.18;9.38;;;27.70;70.40;;;;;;4958055;28;20026;-82
2022/06/05 04:41:18;;;;;;;12.20;10.75;;;27.80;69.40;;;;;;4958407;28;20026;-79
2022/06/05 04:43:45;;;;;;;12.55;9.40;;;27.90;69.20;;;;;;4957424;28;20084;-78
2022/06/05 04:46:10;;;;;;;10.27;8.98;;;27.80;69.40;;;;;;4968553;28;20031;-83
2022/06/05 04:48:36;;;;;;;9.73;8.73;;;27.70;69.60;;;;;;4958218;28;20086;-86
2022/06/05 04:51:04;;;;;;;8.38;7.43;;;27.10;71.20;;;;;;4957964;28;20019;-81
2022/06/05 04:53:29;;;;;;;10.73;8.20;;;26.40;72.80;;;;;;4959190;28;20532;-81
2022/06/05 04:55:55;;;;;;;14.50;8.93;;;26.00;73.90;;;;;;4957290;28;20031;-80
2022/06/05 04:58:21;;;;;;;12.43;8.73;;;25.90;74.60;;;;;;4975680;28;20027;-87
2022/06/05 05:00:48;;;;;;;15.35;10.98;;;25.80;75.00;;;;;;4959510;28;20032;-82
2022/06/05 05:03:14;;;;;;;15.52;11.57;;;25.90;75.40;;;;;;4956785;28;20136;-81
2022/06/05 05:05:41;;;;;;;14.80;11.55;;;26.50;74.20;;;;;;4975075;28;20098;-80
2022/06/05 05:08:07;;;;;;;16.08;13.10;;;26.90;72.90;;;;;;4957787;28;20018;-81
2022/06/05 05:10:33;;;;;;;17.55;13.32;;;27.30;72.10;;;;;;4957670;28;20082;-86
2022/06/05 05:12:59;;;;;;;15.25;12.82;;;27.60;71.40;;;;;;4953380;28;20073;-86
2022/06/05 05:15:24;;;;;;;20.38;14.00;;;27.80;70.80;;;;;;4955451;29;20119;-81
2022/06/05 05:17:50;;;;;;;19.65;14.25;;;27.80;70.40;;;;;;4955699;29;20023;-84
2022/06/05 05:20:16;;;;;;;17.17;13.77;;;27.80;70.20;;;;;;4955725;28;20082;-86
2022/06/05 05:22:42;;;;;;;19.58;14.63;;;28.00;70.40;;;;;;4949808;29;20049;-81
2022/06/05 05:25:10;;;;;;;19.50;14.63;;;28.10;70.30;;;;;;4954431;29;20038;-82
2022/06/05 05:27:37;;;;;;;23.13;16.13;;;28.20;70.10;;;;;;4939311;29;20114;-84
2022/06/05 05:30:06;;;;;;;21.30;15.27;;;28.10;69.90;;;;;;4938299;29;20447;-82
2022/06/05 05:32:32;;;;;;;21.15;14.77;;;28.20;69.90;;;;;;4956281;29;20078;-82
2022/06/05 05:34:58;;;;;;;20.83;14.82;;;28.20;70.20;;;;;;4938867;29;20122;-84
2022/06/05 05:37:23;;;;;;;23.85;16.45;;;28.20;70.00;;;;;;4954184;29;20023;-83
2022/06/05 05:42:33;;;;;;;21.80;15.35;;;28.30;70.10;;;;;;4956437;28;20034;-85
2022/06/05 05:44:59;;;;;;;23.25;16.05;;;28.30;70.20;;;;;;4942577;29;20027;-80
2022/06/05 05:48:04;;;;;;;19.58;15.27;;;28.40;70.30;;;;;;4942778;29;20019;-85
2022/06/05 05:50:29;;;;;;;21.63;15.40;;;28.30;70.10;;;;;;4941630;29;20020;-85
2022/06/05 05:52:55;;;;;;;24.13;16.77;;;28.20;70.40;;;;;;4960483;29;20022;-84
2022/06/05 05:55:21;;;;;;;25.75;17.05;;;28.20;70.40;;;;;;4957383;29;20031;-87
2022/06/05 05:57:47;;;;;;;20.00;15.77;;;27.60;71.60;;;;;;4941324;29;20152;-82
2022/06/05 06:00:16;;;;;;;25.13;18.08;;;27.60;71.70;;;;;;4942191;29;20023;-88
2022/06/05 06:02:43;;;;;;;27.48;18.77;;;27.50;72.50;;;;;;4942199;29;20042;-87
2022/06/05 06:05:13;;;;;;;27.45;18.48;;;27.50;72.20;;;;;;4941658;29;20034;-82
2022/06/05 06:07:39;;;;;;;27.08;18.63;;;27.70;71.40;;;;;;4942179;29;20055;-83
2022/06/05 06:10:05;;;;;;;20.17;16.10;;;27.50;72.30;;;;;;4957632;29;20403;-84
2022/06/05 06:12:31;;;;;;;20.98;16.30;;;27.10;73.30;;;;;;4961794;28;20035;-88
2022/06/05 06:14:57;;;;;;;22.00;16.60;;;25.90;76.70;;;;;;4959672;28;20086;-83
2022/06/05 06:17:22;;;;;;;24.17;18.17;;;25.20;78.50;;;;;;4960622;28;20458;-88
2022/06/05 06:19:48;;;;;;;20.08;15.85;;;25.40;78.90;;;;;;4976207;28;20026;-80
2022/06/05 06:22:14;;;;;;;20.60;15.52;;;26.00;76.80;;;;;;4960188;28;20023;-81
2022/06/05 06:24:40;;;;;;;22.02;15.73;;;25.50;77.40;;;;;;4959860;28;20022;-80
2022/06/05 06:27:06;;;;;;;20.88;15.95;;;25.30;78.40;;;;;;4973531;28;20015;-81
2022/06/05 06:29:31;;;;;;;18.45;13.90;;;25.50;78.80;;;;;;4960341;28;20030;-78
2022/06/05 06:31:57;;;;;;;17.88;14.75;;;25.90;76.80;;;;;;4960142;28;20026;-79
2022/06/05 06:34:23;;;;;;;14.80;13.23;;;25.30;78.00;;;;;;4977489;28;20030;-90
2022/06/05 06:36:48;;;;;;;15.93;13.70;;;25.20;78.40;;;;;;4959668;28;20035;-82
2022/06/05 06:39:14;;;;;;;16.67;13.90;;;25.10;78.40;;;;;;4977353;28;20094;-83
2022/06/05 06:41:40;;;;;;;15.48;13.45;;;25.10;78.20;;;;;;4960296;28;20034;-82
2022/06/05 06:44:06;;;;;;;16.15;12.55;;;25.00;78.00;;;;;;4960470;28;20132;-78
2022/06/05 06:46:32;;;;;;;15.43;11.93;;;24.90;78.10;;;;;;4270252;28;10021583;-79
2022/06/05 06:48:58;;;;;;;13.30;11.90;;;24.80;79.20;;;;;;4959271;28;20034;-82
2022/06/05 06:51:24;;;;;;;13.63;11.32;;;25.30;78.70;;;;;;4958487;28;20058;-79
2022/06/05 06:53:50;;;;;;;13.68;10.38;;;25.50;75.90;;;;;;4956911;28;20054;-81
2022/06/05 06:56:19;;;;;;;11.60;9.90;;;25.60;75.40;;;;;;4974162;28;20433;-78
2022/06/05 06:58:45;;;;;;;11.68;10.18;;;25.50;75.50;;;;;;4967061;28;20097;-80
2022/06/05 07:01:12;;;;;;;11.38;9.80;;;25.40;76.30;;;;;;4988080;28;20433;-79
2022/06/05 07:03:39;;;;;;;11.52;10.15;;;25.30;75.60;;;;;;4958095;28;20050;-77
2022/06/05 07:06:07;;;;;;;11.85;10.70;;;25.20;75.50;;;;;;4960813;28;20026;-91
2022/06/05 07:08:33;;;;;;;14.15;10.07;;;25.70;76.30;;;;;;4958651;28;20042;-79
2022/06/05 07:10:59;;;;;;;12.75;9.70;;;26.30;73.90;;;;;;4952196;28;20030;-84
2022/06/05 07:13:25;;;;;;;9.75;8.52;;;26.50;73.20;;;;;;4942557;28;20050;-80
2022/06/05 07:15:52;;;;;;;10.65;9.40;;;26.80;71.50;;;;;;4949200;28;20102;-81
2022/06/05 07:18:19;;;;;;;12.50;9.10;;;25.90;73.70;;;;;;4934056;29;20023;-84
2022/06/05 07:20:45;;;;;;;10.50;8.77;;;26.00;72.20;;;;;;4954299;28;20020;-79
2022/06/05 07:23:12;;;;;;;12.20;9.02;;;26.00;72.40;;;;;;4929778;29;20027;-83
2022/06/05 07:25:44;;;;;;;10.65;8.90;;;25.90;73.50;;;;;;4921499;29;20506;-80
2022/06/05 07:28:09;;;;;;;10.23;8.20;;;25.90;73.80;;;;;;4929574;28;20030;-83
2022/06/05 07:30:35;;;;;;;9.57;8.48;;;25.90;73.40;;;;;;4937783;29;20018;-82
2022/06/05 07:33:01;;;;;;;12.10;8.20;;;25.70;73.30;;;;;;4937699;29;20035;-84
2022/06/05 07:35:27;;;;;;;10.40;8.05;;;25.60;73.40;;;;;;4937342;29;20026;-93
2022/06/05 07:37:52;;;;;;;9.35;7.80;;;25.50;73.30;;;;;;4935682;29;20055;-83
2022/06/05 07:40:18;;;;;;;10.20;7.57;;;25.80;74.00;;;;;;4938420;29;20026;-78
2022/06/05 07:42:44;;;;;;;9.05;7.30;;;26.10;73.30;;;;;;4937447;29;20027;-79
2022/06/05 07:45:14;;;;;;;7.82;7.03;;;26.40;72.30;;;;;;4955514;29;20034;-81
2022/06/05 07:47:40;;;;;;;9.55;7.18;;;26.60;72.50;;;;;;4938398;29;20020;-79
2022/06/05 07:50:06;;;;;;;8.05;7.10;;;26.90;70.30;;;;;;4939733;29;20027;-79
2022/06/05 07:55:21;;;;;;;11.13;7.05;;;27.20;69.00;;;;;;4947832;28;20029;-79
2022/06/05 07:57:46;;;;;;;10.35;7.00;;;27.30;68.40;;;;;;4952126;28;20019;-83
2022/06/05 08:00:13;;;;;;;8.27;6.68;;;26.80;69.60;;;;;;4954463;28;20030;-82
2022/06/05 08:02:39;;;;;;;8.55;6.32;;;26.70;71.10;;;;;;4936419;29;20043;-77
2022/06/05 08:05:06;;;;;;;8.35;6.88;;;26.50;70.70;;;;;;4955513;28;20035;-85
2022/06/05 08:07:33;;;;;;;10.68;6.80;;;27.00;70.00;;;;;;4937647;29;20051;-80
2022/06/05 08:10:00;;;;;;;8.75;6.18;;;27.80;69.20;;;;;;4955140;28;20136;-83
2022/06/05 08:12:29;;;;;;;8.40;7.00;;;27.60;67.20;;;;;;4939967;28;20055;-80
2022/06/05 08:14:55;;;;;;;7.40;6.50;;;27.70;70.00;;;;;;4950765;28;20023;-81
2022/06/05 08:17:30;;;;;;;6.50;5.80;;;27.70;67.00;;;;;;4939448;29;20078;-85
2022/06/05 08:19:56;;;;;;;8.95;6.13;;;27.50;67.30;;;;;;4955085;28;20027;-88
2022/06/05 08:22:24;;;;;;;7.35;5.53;;;27.30;68.20;;;;;;4947767;28;20045;-78
2022/06/05 08:24:50;;;;;;;6.50;5.80;;;26.80;68.50;;;;;;4955059;28;20056;-86
2022/06/05 08:27:18;;;;;;;5.70;5.10;;;27.00;69.80;;;;;;4955106;28;20034;-78
2022/06/05 08:29:44;;;;;;;7.68;5.28;;;27.70;66.40;;;;;;4937523;29;20027;-80
2022/06/05 08:32:11;;;;;;;6.72;5.97;;;28.00;67.00;;;;;;4954895;29;20403;-90
2022/06/05 08:34:37;;;;;;;7.40;5.88;;;28.00;66.20;;;;;;4937551;28;20383;-85
2022/06/05 08:42:54;;;;;;;7.95;5.75;;;27.90;65.70;;;;;;4975616;28;20042;-81
2022/06/05 08:45:34;;;;;;;7.57;6.30;;;28.80;63.50;;;;;;4954772;28;20057;-82
2022/06/05 08:48:06;;;;;;;6.88;5.57;;;28.40;65.30;;;;;;4958545;28;20014;-81
2022/06/05 08:50:40;;;;;;;8.00;5.80;;;28.70;64.80;;;;;;4963431;28;20491;-82
2022/06/05 08:53:11;;;;;;;6.93;5.95;;;29.10;63.90;;;;;;4964186;28;20102;-87
2022/06/05 08:55:46;;;;;;;6.90;5.28;;;28.80;65.30;;;;;;4956279;28;20685;-86
2022/06/05 08:58:11;;;;;;;6.97;5.93;;;29.00;63.30;;;;;;4948441;29;20023;-79
2022/06/05 09:00:42;;;;;;;6.57;5.60;;;28.40;64.80;;;;;;4964939;28;20019;-80
2022/06/05 09:03:30;;;;;;;8.30;5.85;;;28.60;65.60;;;;;;4945949;28;20089;-87
2022/06/05 09:06:25;;;;;;;8.18;5.57;;;28.40;64.20;;;;;;4957052;28;20458;-80
2022/06/05 09:08:56;;;;;;;7.57;5.63;;;28.40;64.60;;;;;;4952291;28;20034;-83
2022/06/05 09:11:48;;;;;;;8.93;5.90;;;28.40;64.30;;;;;;4957551;28;20027;-82
2022/06/05 09:14:31;;;;;;;11.32;6.75;;;28.80;64.70;;;;;;4955941;29;20042;-87
2022/06/05 09:17:14;;;;;;;7.85;5.90;;;28.90;65.90;;;;;;4958425;28;20378;-90
2022/06/05 09:19:41;;;;;;;7.97;6.40;;;29.40;64.40;;;;;;4955709;28;20019;-90
2022/06/05 09:22:49;;;;;;;9.30;6.80;;;29.00;64.20;;;;;;4945842;28;20386;-78
2022/06/05 09:25:33;;;;;;;8.30;6.10;;;28.90;64.20;;;;;;4940293;28;20038;-83
2022/06/05 09:28:01;;;;;;;6.97;6.28;;;29.30;63.00;;;;;;4956479;28;20022;-89
2022/06/05 09:30:54;;;;;;;10.13;6.50;;;28.70;63.10;;;;;;4951088;28;20478;-92
2022/06/05 09:33:30;;;;;;;10.90;6.93;;;28.20;64.60;;;;;;4956724;28;20023;-85
2022/06/05 09:36:00;;;;;;;11.45;6.70;;;28.00;64.70;;;;;;4975031;28;20022;-88
2022/06/05 09:38:31;;;;;;;;;;;28.30;64.40;;;;;;4958556;28;20027;-88
2022/06/05 09:41:23;;;;;;;7.90;6.70;;;28.70;63.20;;;;;;4957733;28;19913;-84
2022/06/05 09:44:20;;;;;;;10.52;6.90;;;28.40;63.90;;;;;;4943865;28;20039;-83
2022/06/05 09:46:54;;;;;;;9.50;6.63;;;28.20;65.10;;;;;;4957221;28;20070;-81
2022/06/05 09:49:28;;;;;;;9.82;6.93;;;28.10;64.60;;;;;;4957772;28;20046;-90
2022/06/05 09:51:54;;;;;;;7.90;6.85;;;27.90;65.00;;;;;;4957090;28;20113;-76
2022/06/05 09:54:32;;;;;;;9.82;6.60;;;28.70;63.20;;;;;;4958342;28;20026;-80
2022/06/05 10:00:43;;;;;;;7.63;6.10;;;29.80;64.10;;;;;;4975125;28;20033;-79
2022/06/05 10:03:14;;;;;;;8.63;6.88;;;30.40;60.50;;;;;;4975688;28;20046;-86
2022/06/05 10:05:45;;;;;;;9.63;6.72;;;29.90;61.80;;;;;;4972856;28;20504;-82
2022/06/05 10:08:28;;;;;;;8.90;6.93;;;30.00;62.00;;;;;;4957270;28;20023;-88
2022/06/05 10:10:59;;;;;;;7.68;6.65;;;30.10;61.20;;;;;;4957475;28;20113;-81
2022/06/05 10:13:44;;;;;;;8.27;6.32;;;28.90;61.10;;;;;;4953112;29;20066;-84
2022/06/05 10:16:38;;;;;;;10.30;6.50;;;28.70;63.70;;;;;;4954182;29;20024;-82
2022/06/05 10:19:10;;;;;;;9.27;6.05;;;29.40;62.00;;;;;;4954997;29;20037;-84
2022/06/05 10:21:41;;;;;;;7.07;5.78;;;28.90;61.80;;;;;;4954795;28;20046;-83
2022/06/05 10:24:30;;;;;;;6.68;6.00;;;29.00;62.30;;;;;;4954256;29;20035;-83
2022/06/05 10:27:00;;;;;;;10.32;5.85;;;29.00;61.50;;;;;;4953088;28;20370;-88
2022/06/05 10:29:28;;;;;;;6.82;5.40;;;29.20;62.00;;;;;;4955870;28;20031;-83
2022/06/05 10:32:01;;;;;;;7.82;6.18;;;28.90;63.20;;;;;;4957074;29;20051;-82
2022/06/05 10:34:34;;;;;;;6.47;5.68;;;28.90;61.90;;;;;;4957095;29;20027;-84
2022/06/05 10:37:30;;;;;;;7.82;5.38;;;28.60;62.20;;;;;;4957448;29;20023;-92
2022/06/05 10:40:12;;;;;;;6.50;5.60;;;28.60;63.80;;;;;;3929967;28;10000730;-89
2022/06/05 10:43:04;;;;;;;8.63;6.10;;;28.70;61.80;;;;;;4956582;28;20585;-80
2022/06/05 10:45:39;;;;;;;7.03;5.60;;;29.20;62.40;;;;;;4958237;28;20031;-84
2022/06/05 10:48:42;;;;;;;8.55;6.20;;;29.40;61.50;;;;;;4958239;28;20498;-81
2022/06/05 10:51:35;;;;;;;6.95;6.18;;;29.50;62.50;;;;;;4956686;29;20019;-82
2022/06/05 10:54:36;;;;;;;7.25;5.90;;;29.40;61.40;;;;;;4957858;29;20026;-82
2022/06/05 10:57:05;;;;;;;8.35;6.93;;;29.20;61.90;;;;;;4972955;28;20038;-84
2022/06/05 10:59:47;;;;;;;8.40;7.15;;;29.70;61.90;;;;;;4956505;29;20027;-85
2022/06/05 11:02:51;;;;;;;8.95;6.30;;;30.20;60.70;;;;;;4960135;28;20012;-88
2022/06/05 11:05:31;;;;;;;8.75;6.57;;;29.30;62.30;;;;;;4917315;29;20036;-82
2022/06/05 11:08:30;;;;;;;7.65;6.15;;;28.60;64.10;;;;;;4901370;29;20168;-80
2022/06/05 11:14:12;;;;;;;8.85;7.25;;;28.70;63.50;;;;;;4916378;29;20140;-84
2022/06/05 11:16:47;;;;;;;7.63;6.82;;;29.00;63.20;;;;;;4918812;29;20300;-84
2022/06/05 11:19:53;;;;;;;19.38;9.88;;;29.30;62.40;;;;;;4917236;29;20035;-86
2022/06/05 11:22:21;;;;;;;16.67;9.57;;;29.20;62.80;;;;;;4918107;29;20043;-80
2022/06/05 11:24:48;;;;;;;14.40;8.70;;;29.30;62.50;;;;;;4917207;29;20128;-81
2022/06/05 11:27:25;;;;;;;9.15;8.25;;;29.20;62.90;;;;;;4918094;29;20075;-81
2022/06/05 11:30:17;;;;;;;13.75;9.20;;;29.40;61.70;;;;;;4916972;29;20036;-83
2022/06/05 11:33:23;;;;;;;9.45;8.45;;;29.50;61.70;;;;;;4901444;29;20024;-83
2022/06/05 11:36:33;;;;;;;9.07;8.18;;;29.40;62.10;;;;;;4922524;29;20462;-81
2022/06/05 11:39:11;;;;;;;11.35;8.68;;;29.50;60.60;;;;;;4954873;28;20472;-80
2022/06/05 11:41:42;;;;;;;9.05;8.07;;;29.50;60.60;;;;;;4957924;28;20030;-87
2022/06/05 11:44:17;;;;;;;11.68;9.00;;;29.70;61.00;;;;;;4955725;29;20057;-84
2022/06/05 11:47:06;;;;;;;10.52;7.38;;;29.80;60.30;;;;;;4956143;29;20351;-90
2022/06/05 11:50:10;;;;;;;9.48;7.38;;;30.10;59.90;;;;;;4955943;29;20026;-83
2022/06/05 11:52:58;;;;;;;12.35;7.07;;;29.90;59.70;;;;;;4955394;29;20023;-90
2022/06/05 11:55:43;;;;;;;9.18;8.02;;;29.70;60.50;;;;;;4958187;29;20370;-88
2022/06/05 11:58:27;;;;;;;14.77;9.88;;;30.10;59.10;;;;;;4954547;29;20031;-83
2022/06/05 12:00:59;;;;;;;7.30;6.10;;;30.40;58.90;;;;;;4956228;29;20313;-80
2022/06/05 12:03:48;;;;;;;11.25;6.68;;;30.30;58.60;;;;;;4956938;28;20129;-81
2022/06/05 12:06:21;;;;;;;12.27;10.15;;;30.30;59.10;;;;;;4955911;29;20023;-82
2022/06/05 12:08:55;;;;;;;8.75;6.45;;;30.40;58.80;;;;;;4956215;29;20047;-82
2022/06/05 12:11:35;;;;;;;7.40;6.35;;;30.60;59.60;;;;;;4956326;29;20454;-81
2022/06/05 12:14:12;;;;;;;6.88;6.15;;;30.80;58.60;;;;;;4956303;29;20050;-86
2022/06/05 12:17:08;;;;;;;12.88;6.30;;;30.80;57.50;;;;;;4955996;28;20043;-85
2022/06/05 12:20:08;;;;;;;8.23;5.95;;;30.40;58.40;;;;;;4954672;28;20023;-87
2022/06/05 12:22:44;;;;;;;6.88;6.10;;;30.10;59.50;;;;;;4955693;29;20027;-81
2022/06/05 12:25:12;;;;;;;8.85;5.93;;;30.40;58.60;;;;;;4971560;28;20086;-86
2022/06/05 12:28:03;;;;;;;8.07;5.80;;;30.90;58.50;;;;;;4955083;29;20110;-82
2022/06/05 12:30:49;;;;;;;7.43;6.03;;;31.20;57.50;;;;;;4955103;29;20058;-82
2022/06/05 12:33:26;;;;;;;6.72;6.03;;;31.00;57.90;;;;;;4954550;29;20451;-83
2022/06/05 12:35:54;;;;;;;6.55;5.85;;;31.00;56.20;;;;;;4955159;29;20023;-87
2022/06/05 12:38:26;;;;;;;6.07;5.47;;;31.20;57.40;;;;;;4955939;28;20074;-90
2022/06/05 12:41:19;;;;;;;7.15;5.40;;;30.70;57.60;;;;;;4955286;29;20434;-85
2022/06/05 12:44:19;;;;;;;20.95;6.13;;;30.00;57.30;;;;;;4954624;29;20031;-86
2022/06/05 12:47:23;;;;;;;8.57;5.45;;;29.90;57.40;;;;;;4956585;29;20027;-86
2022/06/05 12:49:54;;;;;;;7.60;5.15;;;30.10;57.80;;;;;;4915791;29;20024;-80
2022/06/05 12:52:38;;;;;;;6.53;4.80;;;30.60;56.00;;;;;;4917544;29;20060;-82
2022/06/05 12:55:16;;;;;;;8.52;5.53;;;30.90;56.10;;;;;;4917430;29;20040;-88
2022/06/05 12:57:44;;;;;;;10.15;5.43;;;31.10;56.20;;;;;;4915793;29;20105;-84
2022/06/05 13:00:35;;;;;;;7.28;5.30;;;31.30;56.20;;;;;;4915526;29;20063;-86
2022/06/05 13:03:10;;;;;;;5.82;5.22;;;31.40;55.70;;;;;;4915411;29;20173;-81
2022/06/05 13:05:53;;;;;;;6.30;5.20;;;31.40;56.80;;;;;;4915717;29;20028;-87
2022/06/05 13:08:35;;;;;;;5.78;5.10;;;31.60;56.50;;;;;;4915723;29;20131;-83
2022/06/05 13:11:17;;;;;;;6.88;5.07;;;30.90;57.20;;;;;;4915648;29;20031;-87
2022/06/05 13:14:01;;;;;;;6.28;5.35;;;30.60;56.70;;;;;;4916773;29;20048;-92
2022/06/05 13:16:44;;;;;;;6.13;4.78;;;30.80;55.70;;;;;;4915507;29;20032;-88
2022/06/05 13:19:13;;;;;;;5.78;4.85;;;31.10;55.00;;;;;;4899438;29;20058;-90
2022/06/05 13:22:04;;;;;;;9.43;4.97;;;31.00;54.70;;;;;;4915034;29;20439;-81
2022/06/05 13:24:37;;;;;;;11.00;5.00;;;31.00;55.30;;;;;;4915967;29;20453;-79
2022/06/05 13:27:45;;;;;;;9.35;5.03;;;30.90;55.70;;;;;;4941949;29;20035;-79
2022/06/05 13:30:18;;;;;;;6.82;4.82;;;31.30;56.50;;;;;;4915465;29;20084;-85